sensor_id;sensor_type;location;lat;lon;timestamp;P1;durP1;ratioP1;P2;durP2;ratioP2
18776;SDS011;9517;51.174;4.160;2023-04-28T00:00:18;25.23;;;13.57;;
18776;SDS011;9517;51.174;4.160;2023-04-28T00:02:47;28.17;;;13.93;;
18776;SDS011;9517;51.174;4.160;2023-04-28T00:05:14;28.87;;;13.90;;
18776;SDS011;9517;51.174;4.160;2023-04-28T00:07:41;24.70;;;13.70;;
18776;SDS011;9517;51.174;4.160;2023-04-28T00:10:08;26.53;;;12.60;;
18776;SDS011;9517;51.174;4.160;2023-04-28T00:12:36;31.00;;;14.43;;
18776;SDS011;9517;51.174;4.160;2023-04-28T00:15:03;25.97;;;13.73;;
18776;SDS011;9517;51.174;4.160;2023-04-28T00:17:31;26.53;;;13.53;;
18776;SDS011;9517;51.174;4.160;2023-04-28T00:19:59;28.53;;;13.67;;
18776;SDS011;9517;51.174;4.160;2023-04-28T00:22:27;26.50;;;13.60;;
18776;SDS011;9517;51.174;4.160;2023-04-28T00:24:54;26.07;;;13.43;;
18776;SDS011;9517;51.174;4.160;2023-04-28T00:27:21;24.40;;;12.63;;
18776;SDS011;9517;51.174;4.160;2023-04-28T00:29:48;29.37;;;12.97;;
18776;SDS011;9517;51.174;4.160;2023-04-28T00:32:15;29.30;;;13.00;;
18776;SDS011;9517;51.174;4.160;2023-04-28T00:34:42;28.10;;;13.40;;
18776;SDS011;9517;51.174;4.160;2023-04-28T00:37:10;29.57;;;14.27;;
18776;SDS011;9517;51.174;4.160;2023-04-28T00:39:37;26.40;;;13.60;;
18776;SDS011;9517;51.174;4.160;2023-04-28T00:42:05;25.63;;;13.00;;
18776;SDS011;9517;51.174;4.160;2023-04-28T00:44:32;24.10;;;13.47;;
18776;SDS011;9517;51.174;4.160;2023-04-28T00:46:59;26.77;;;14.03;;
18776;SDS011;9517;51.174;4.160;2023-04-28T00:49:27;24.97;;;14.00;;
18776;SDS011;9517;51.174;4.160;2023-04-28T00:51:55;30.93;;;15.07;;
18776;SDS011;9517;51.174;4.160;2023-04-28T00:54:29;25.80;;;14.70;;
18776;SDS011;9517;51.174;4.160;2023-04-28T00:56:56;33.43;;;14.90;;
18776;SDS011;9517;51.174;4.160;2023-04-28T00:59:23;31.83;;;16.20;;
18776;SDS011;9517;51.174;4.160;2023-04-28T01:01:50;28.97;;;14.87;;
18776;SDS011;9517;51.174;4.160;2023-04-28T01:04:19;28.87;;;15.23;;
18776;SDS011;9517;51.174;4.160;2023-04-28T01:06:47;28.90;;;14.43;;
18776;SDS011;9517;51.174;4.160;2023-04-28T01:09:15;26.83;;;14.20;;
18776;SDS011;9517;51.174;4.160;2023-04-28T01:11:43;29.73;;;14.53;;
18776;SDS011;9517;51.174;4.160;2023-04-28T01:14:10;30.60;;;15.17;;
18776;SDS011;9517;51.174;4.160;2023-04-28T01:16:37;29.50;;;16.27;;
18776;SDS011;9517;51.174;4.160;2023-04-28T01:19:05;30.00;;;15.83;;
18776;SDS011;9517;51.174;4.160;2023-04-28T01:21:33;31.23;;;16.53;;
18776;SDS011;9517;51.174;4.160;2023-04-28T01:24:02;28.20;;;15.37;;
18776;SDS011;9517;51.174;4.160;2023-04-28T01:26:31;30.80;;;15.40;;
18776;SDS011;9517;51.174;4.160;2023-04-28T01:28:59;26.97;;;14.67;;
18776;SDS011;9517;51.174;4.160;2023-04-28T01:31:26;31.10;;;16.20;;
18776;SDS011;9517;51.174;4.160;2023-04-28T01:33:54;27.37;;;15.00;;
18776;SDS011;9517;51.174;4.160;2023-04-28T01:36:21;31.30;;;16.77;;
18776;SDS011;9517;51.174;4.160;2023-04-28T01:38:48;28.63;;;16.43;;
18776;SDS011;9517;51.174;4.160;2023-04-28T01:41:17;32.87;;;15.43;;
18776;SDS011;9517;51.174;4.160;2023-04-28T01:43:44;27.30;;;15.60;;
18776;SDS011;9517;51.174;4.160;2023-04-28T01:46:11;33.17;;;16.37;;
18776;SDS011;9517;51.174;4.160;2023-04-28T01:48:38;31.00;;;16.07;;
18776;SDS011;9517;51.174;4.160;2023-04-28T01:51:05;30.50;;;16.33;;
18776;SDS011;9517;51.174;4.160;2023-04-28T01:53:32;30.33;;;16.40;;
18776;SDS011;9517;51.174;4.160;2023-04-28T01:55:59;27.90;;;16.70;;
18776;SDS011;9517;51.174;4.160;2023-04-28T01:58:28;29.47;;;16.50;;
18776;SDS011;9517;51.174;4.160;2023-04-28T02:00:55;34.30;;;17.57;;
18776;SDS011;9517;51.174;4.160;2023-04-28T02:03:22;31.40;;;17.37;;
18776;SDS011;9517;51.174;4.160;2023-04-28T02:05:49;30.03;;;16.73;;
18776;SDS011;9517;51.174;4.160;2023-04-28T02:08:16;31.70;;;17.10;;
18776;SDS011;9517;51.174;4.160;2023-04-28T02:10:43;32.30;;;17.83;;
18776;SDS011;9517;51.174;4.160;2023-04-28T02:13:10;31.73;;;17.27;;
18776;SDS011;9517;51.174;4.160;2023-04-28T02:15:40;32.97;;;17.23;;
18776;SDS011;9517;51.174;4.160;2023-04-28T02:18:07;29.40;;;17.20;;
18776;SDS011;9517;51.174;4.160;2023-04-28T02:20:34;30.20;;;17.07;;
18776;SDS011;9517;51.174;4.160;2023-04-28T02:23:02;30.90;;;17.60;;
18776;SDS011;9517;51.174;4.160;2023-04-28T02:25:29;33.33;;;17.53;;
18776;SDS011;9517;51.174;4.160;2023-04-28T02:27:56;33.40;;;18.00;;
18776;SDS011;9517;51.174;4.160;2023-04-28T02:30:23;30.50;;;18.10;;
18776;SDS011;9517;51.174;4.160;2023-04-28T02:32:51;30.03;;;17.30;;
18776;SDS011;9517;51.174;4.160;2023-04-28T02:35:18;34.53;;;17.87;;
18776;SDS011;9517;51.174;4.160;2023-04-28T02:37:46;31.10;;;17.67;;
18776;SDS011;9517;51.174;4.160;2023-04-28T02:40:13;29.97;;;17.10;;
18776;SDS011;9517;51.174;4.160;2023-04-28T02:42:40;34.17;;;17.87;;
18776;SDS011;9517;51.174;4.160;2023-04-28T02:45:07;31.30;;;19.00;;
18776;SDS011;9517;51.174;4.160;2023-04-28T02:47:34;31.17;;;17.97;;
18776;SDS011;9517;51.174;4.160;2023-04-28T02:50:03;32.43;;;18.73;;
18776;SDS011;9517;51.174;4.160;2023-04-28T02:52:31;33.50;;;18.60;;
18776;SDS011;9517;51.174;4.160;2023-04-28T02:54:58;36.03;;;19.50;;
18776;SDS011;9517;51.174;4.160;2023-04-28T02:57:25;33.73;;;19.63;;
18776;SDS011;9517;51.174;4.160;2023-04-28T02:59:52;31.73;;;18.70;;
18776;SDS011;9517;51.174;4.160;2023-04-28T03:02:19;39.47;;;18.17;;
18776;SDS011;9517;51.174;4.160;2023-04-28T03:04:47;32.37;;;17.77;;
18776;SDS011;9517;51.174;4.160;2023-04-28T03:07:15;33.13;;;18.83;;
18776;SDS011;9517;51.174;4.160;2023-04-28T03:09:42;34.57;;;18.07;;
18776;SDS011;9517;51.174;4.160;2023-04-28T03:12:10;37.37;;;19.63;;
18776;SDS011;9517;51.174;4.160;2023-04-28T03:14:37;32.43;;;19.13;;
18776;SDS011;9517;51.174;4.160;2023-04-28T03:17:04;33.43;;;19.03;;
18776;SDS011;9517;51.174;4.160;2023-04-28T03:19:31;33.43;;;18.53;;
18776;SDS011;9517;51.174;4.160;2023-04-28T03:21:58;35.50;;;19.20;;
18776;SDS011;9517;51.174;4.160;2023-04-28T03:24:27;38.07;;;19.43;;
18776;SDS011;9517;51.174;4.160;2023-04-28T03:26:54;35.73;;;19.53;;
18776;SDS011;9517;51.174;4.160;2023-04-28T03:29:21;34.37;;;20.30;;
18776;SDS011;9517;51.174;4.160;2023-04-28T03:31:49;33.20;;;19.37;;
18776;SDS011;9517;51.174;4.160;2023-04-28T03:34:16;35.07;;;19.80;;
18776;SDS011;9517;51.174;4.160;2023-04-28T03:36:43;36.47;;;19.43;;
18776;SDS011;9517;51.174;4.160;2023-04-28T03:39:10;37.43;;;20.13;;
18776;SDS011;9517;51.174;4.160;2023-04-28T03:41:39;34.93;;;20.60;;
18776;SDS011;9517;51.174;4.160;2023-04-28T03:44:06;36.30;;;20.87;;
18776;SDS011;9517;51.174;4.160;2023-04-28T03:46:33;38.30;;;20.27;;
18776;SDS011;9517;51.174;4.160;2023-04-28T03:49:00;36.97;;;21.03;;
18776;SDS011;9517;51.174;4.160;2023-04-28T03:51:27;40.90;;;21.60;;
18776;SDS011;9517;51.174;4.160;2023-04-28T03:53:56;38.00;;;20.77;;
18776;SDS011;9517;51.174;4.160;2023-04-28T03:56:23;35.40;;;21.13;;
18776;SDS011;9517;51.174;4.160;2023-04-28T03:58:52;37.80;;;20.83;;
18776;SDS011;9517;51.174;4.160;2023-04-28T04:01:19;36.70;;;22.83;;
18776;SDS011;9517;51.174;4.160;2023-04-28T04:03:46;37.77;;;22.57;;
18776;SDS011;9517;51.174;4.160;2023-04-28T04:06:13;46.17;;;24.13;;
18776;SDS011;9517;51.174;4.160;2023-04-28T04:08:40;41.47;;;23.83;;
18776;SDS011;9517;51.174;4.160;2023-04-28T04:11:07;43.03;;;24.47;;
18776;SDS011;9517;51.174;4.160;2023-04-28T04:13:34;42.50;;;26.20;;
18776;SDS011;9517;51.174;4.160;2023-04-28T04:16:03;44.80;;;26.37;;
18776;SDS011;9517;51.174;4.160;2023-04-28T04:18:30;48.47;;;28.47;;
18776;SDS011;9517;51.174;4.160;2023-04-28T04:20:57;48.37;;;28.47;;
18776;SDS011;9517;51.174;4.160;2023-04-28T04:23:24;47.97;;;28.57;;
18776;SDS011;9517;51.174;4.160;2023-04-28T04:25:51;50.70;;;28.90;;
18776;SDS011;9517;51.174;4.160;2023-04-28T04:28:18;52.40;;;30.07;;
18776;SDS011;9517;51.174;4.160;2023-04-28T04:30:46;58.80;;;31.43;;
18776;SDS011;9517;51.174;4.160;2023-04-28T04:33:14;54.93;;;30.93;;
18776;SDS011;9517;51.174;4.160;2023-04-28T04:35:41;54.50;;;30.83;;
18776;SDS011;9517;51.174;4.160;2023-04-28T04:38:08;53.50;;;30.67;;
18776;SDS011;9517;51.174;4.160;2023-04-28T04:40:35;57.37;;;31.70;;
18776;SDS011;9517;51.174;4.160;2023-04-28T04:43:02;50.60;;;30.43;;
18776;SDS011;9517;51.174;4.160;2023-04-28T04:45:29;58.00;;;31.60;;
18776;SDS011;9517;51.174;4.160;2023-04-28T04:47:57;56.17;;;31.60;;
18776;SDS011;9517;51.174;4.160;2023-04-28T04:50:26;57.10;;;35.30;;
18776;SDS011;9517;51.174;4.160;2023-04-28T04:52:53;59.60;;;33.37;;
18776;SDS011;9517;51.174;4.160;2023-04-28T04:55:21;50.73;;;31.10;;
18776;SDS011;9517;51.174;4.160;2023-04-28T04:57:48;61.07;;;32.90;;
18776;SDS011;9517;51.174;4.160;2023-04-28T05:00:16;52.10;;;31.80;;
18776;SDS011;9517;51.174;4.160;2023-04-28T05:02:44;57.10;;;32.70;;
18776;SDS011;9517;51.174;4.160;2023-04-28T05:05:11;56.73;;;32.73;;
18776;SDS011;9517;51.174;4.160;2023-04-28T05:07:39;57.53;;;32.23;;
18776;SDS011;9517;51.174;4.160;2023-04-28T05:10:06;61.53;;;34.60;;
18776;SDS011;9517;51.174;4.160;2023-04-28T05:12:35;58.13;;;34.53;;
18776;SDS011;9517;51.174;4.160;2023-04-28T05:15:02;55.43;;;33.60;;
18776;SDS011;9517;51.174;4.160;2023-04-28T05:17:30;61.50;;;34.27;;
18776;SDS011;9517;51.174;4.160;2023-04-28T05:19:58;57.43;;;34.27;;
18776;SDS011;9517;51.174;4.160;2023-04-28T05:22:25;58.10;;;33.60;;
18776;SDS011;9517;51.174;4.160;2023-04-28T05:24:53;57.73;;;33.33;;
18776;SDS011;9517;51.174;4.160;2023-04-28T05:27:20;59.87;;;34.27;;
18776;SDS011;9517;51.174;4.160;2023-04-28T05:29:47;54.37;;;32.30;;
18776;SDS011;9517;51.174;4.160;2023-04-28T05:32:14;56.27;;;34.30;;
18776;SDS011;9517;51.174;4.160;2023-04-28T05:34:41;57.17;;;33.07;;
18776;SDS011;9517;51.174;4.160;2023-04-28T05:37:08;56.33;;;32.63;;
18776;SDS011;9517;51.174;4.160;2023-04-28T05:39:35;57.63;;;33.20;;
18776;SDS011;9517;51.174;4.160;2023-04-28T05:42:04;58.93;;;33.77;;
18776;SDS011;9517;51.174;4.160;2023-04-28T05:44:31;59.80;;;33.90;;
18776;SDS011;9517;51.174;4.160;2023-04-28T05:46:58;64.33;;;36.73;;
18776;SDS011;9517;51.174;4.160;2023-04-28T05:49:25;58.13;;;34.33;;
18776;SDS011;9517;51.174;4.160;2023-04-28T05:51:52;61.30;;;35.73;;
18776;SDS011;9517;51.174;4.160;2023-04-28T05:54:19;71.77;;;40.13;;
18776;SDS011;9517;51.174;4.160;2023-04-28T05:56:46;68.93;;;37.33;;
18776;SDS011;9517;51.174;4.160;2023-04-28T05:59:15;61.40;;;35.77;;
18776;SDS011;9517;51.174;4.160;2023-04-28T06:01:42;61.73;;;36.77;;
18776;SDS011;9517;51.174;4.160;2023-04-28T06:04:09;67.67;;;36.10;;
18776;SDS011;9517;51.174;4.160;2023-04-28T06:06:36;67.00;;;37.43;;
18776;SDS011;9517;51.174;4.160;2023-04-28T06:09:03;65.27;;;34.67;;
18776;SDS011;9517;51.174;4.160;2023-04-28T06:11:30;83.20;;;38.57;;
18776;SDS011;9517;51.174;4.160;2023-04-28T06:13:57;66.50;;;37.73;;
18776;SDS011;9517;51.174;4.160;2023-04-28T06:16:27;73.80;;;39.67;;
18776;SDS011;9517;51.174;4.160;2023-04-28T06:18:54;70.90;;;38.43;;
18776;SDS011;9517;51.174;4.160;2023-04-28T06:21:21;79.13;;;40.40;;
18776;SDS011;9517;51.174;4.160;2023-04-28T06:23:49;68.50;;;37.33;;
18776;SDS011;9517;51.174;4.160;2023-04-28T06:26:16;69.07;;;37.07;;
18776;SDS011;9517;51.174;4.160;2023-04-28T06:28:43;73.47;;;37.67;;
18776;SDS011;9517;51.174;4.160;2023-04-28T06:31:10;71.90;;;37.97;;
18776;SDS011;9517;51.174;4.160;2023-04-28T06:33:38;73.53;;;37.87;;
18776;SDS011;9517;51.174;4.160;2023-04-28T06:36:06;70.57;;;38.33;;
18776;SDS011;9517;51.174;4.160;2023-04-28T06:38:33;70.60;;;37.13;;
18776;SDS011;9517;51.174;4.160;2023-04-28T06:41:01;68.77;;;38.07;;
18776;SDS011;9517;51.174;4.160;2023-04-28T06:43:28;63.23;;;35.87;;
18776;SDS011;9517;51.174;4.160;2023-04-28T06:45:55;70.97;;;36.87;;
18776;SDS011;9517;51.174;4.160;2023-04-28T06:48:22;69.53;;;37.70;;
18776;SDS011;9517;51.174;4.160;2023-04-28T06:50:51;65.00;;;37.30;;
18776;SDS011;9517;51.174;4.160;2023-04-28T06:53:18;69.57;;;37.53;;
18776;SDS011;9517;51.174;4.160;2023-04-28T06:55:45;61.17;;;34.60;;
18776;SDS011;9517;51.174;4.160;2023-04-28T06:58:12;65.30;;;36.27;;
18776;SDS011;9517;51.174;4.160;2023-04-28T07:00:40;57.60;;;33.10;;
18776;SDS011;9517;51.174;4.160;2023-04-28T07:03:07;60.50;;;32.47;;
18776;SDS011;9517;51.174;4.160;2023-04-28T07:05:34;53.47;;;31.50;;
18776;SDS011;9517;51.174;4.160;2023-04-28T07:08:03;51.87;;;29.77;;
18776;SDS011;9517;51.174;4.160;2023-04-28T07:10:30;49.17;;;29.73;;
18776;SDS011;9517;51.174;4.160;2023-04-28T07:12:57;45.37;;;29.37;;
18776;SDS011;9517;51.174;4.160;2023-04-28T07:15:24;47.47;;;28.03;;
18776;SDS011;9517;51.174;4.160;2023-04-28T07:17:51;43.20;;;26.40;;
18776;SDS011;9517;51.174;4.160;2023-04-28T07:20:18;37.17;;;23.47;;
18776;SDS011;9517;51.174;4.160;2023-04-28T07:22:45;39.77;;;24.23;;
18776;SDS011;9517;51.174;4.160;2023-04-28T07:25:14;36.93;;;22.80;;
18776;SDS011;9517;51.174;4.160;2023-04-28T07:27:41;36.97;;;23.23;;
18776;SDS011;9517;51.174;4.160;2023-04-28T07:30:08;38.30;;;22.83;;
18776;SDS011;9517;51.174;4.160;2023-04-28T07:32:35;41.77;;;22.73;;
18776;SDS011;9517;51.174;4.160;2023-04-28T07:35:02;37.73;;;21.63;;
18776;SDS011;9517;51.174;4.160;2023-04-28T07:37:30;32.17;;;20.60;;
18776;SDS011;9517;51.174;4.160;2023-04-28T07:39:58;33.70;;;21.50;;
18776;SDS011;9517;51.174;4.160;2023-04-28T07:42:26;28.97;;;18.30;;
18776;SDS011;9517;51.174;4.160;2023-04-28T07:44:53;27.97;;;17.60;;
18776;SDS011;9517;51.174;4.160;2023-04-28T07:47:22;23.00;;;13.67;;
18776;SDS011;9517;51.174;4.160;2023-04-28T07:49:49;17.03;;;10.13;;
18776;SDS011;9517;51.174;4.160;2023-04-28T07:52:16;13.47;;;7.03;;
18776;SDS011;9517;51.174;4.160;2023-04-28T07:54:43;13.80;;;5.93;;
18776;SDS011;9517;51.174;4.160;2023-04-28T07:57:10;10.77;;;4.97;;
18776;SDS011;9517;51.174;4.160;2023-04-28T07:59:39;8.50;;;4.13;;
18776;SDS011;9517;51.174;4.160;2023-04-28T08:02:06;9.30;;;4.20;;
18776;SDS011;9517;51.174;4.160;2023-04-28T08:04:33;9.40;;;4.10;;
18776;SDS011;9517;51.174;4.160;2023-04-28T08:07:01;13.67;;;4.60;;
18776;SDS011;9517;51.174;4.160;2023-04-28T08:09:28;7.40;;;3.67;;
18776;SDS011;9517;51.174;4.160;2023-04-28T08:11:55;10.40;;;4.00;;
18776;SDS011;9517;51.174;4.160;2023-04-28T08:14:23;9.00;;;3.37;;
18776;SDS011;9517;51.174;4.160;2023-04-28T08:16:51;7.73;;;3.50;;
18776;SDS011;9517;51.174;4.160;2023-04-28T08:19:19;8.23;;;4.03;;
18776;SDS011;9517;51.174;4.160;2023-04-28T08:21:46;7.93;;;3.63;;
18776;SDS011;9517;51.174;4.160;2023-04-28T08:24:13;8.77;;;3.90;;
18776;SDS011;9517;51.174;4.160;2023-04-28T08:26:40;7.60;;;3.63;;
18776;SDS011;9517;51.174;4.160;2023-04-28T08:29:08;7.50;;;3.20;;
18776;SDS011;9517;51.174;4.160;2023-04-28T08:31:35;8.17;;;3.50;;
18776;SDS011;9517;51.174;4.160;2023-04-28T08:34:03;9.97;;;3.10;;
18776;SDS011;9517;51.174;4.160;2023-04-28T08:36:30;8.50;;;3.00;;
18776;SDS011;9517;51.174;4.160;2023-04-28T08:38:57;6.73;;;3.00;;
18776;SDS011;9517;51.174;4.160;2023-04-28T08:41:27;9.03;;;2.70;;
18776;SDS011;9517;51.174;4.160;2023-04-28T08:43:58;7.10;;;2.80;;
18776;SDS011;9517;51.174;4.160;2023-04-28T08:46:26;6.13;;;2.90;;
18776;SDS011;9517;51.174;4.160;2023-04-28T08:48:55;6.97;;;3.03;;
18776;SDS011;9517;51.174;4.160;2023-04-28T08:51:30;6.13;;;3.10;;
18776;SDS011;9517;51.174;4.160;2023-04-28T08:54:00;7.97;;;2.97;;
18776;SDS011;9517;51.174;4.160;2023-04-28T08:56:31;9.50;;;3.87;;
18776;SDS011;9517;51.174;4.160;2023-04-28T08:59:00;8.73;;;3.80;;
18776;SDS011;9517;51.174;4.160;2023-04-28T09:01:29;8.77;;;4.10;;
18776;SDS011;9517;51.174;4.160;2023-04-28T09:03:56;9.20;;;3.90;;
18776;SDS011;9517;51.174;4.160;2023-04-28T09:06:27;9.20;;;4.10;;
18776;SDS011;9517;51.174;4.160;2023-04-28T09:11:50;12.00;;;4.67;;
18776;SDS011;9517;51.174;4.160;2023-04-28T09:14:19;9.77;;;4.53;;
18776;SDS011;9517;51.174;4.160;2023-04-28T09:16:46;11.20;;;5.10;;
18776;SDS011;9517;51.174;4.160;2023-04-28T09:19:13;10.33;;;4.37;;
18776;SDS011;9517;51.174;4.160;2023-04-28T09:24:28;16.57;;;4.10;;
18776;SDS011;9517;51.174;4.160;2023-04-28T09:26:56;7.60;;;2.90;;
18776;SDS011;9517;51.174;4.160;2023-04-28T09:29:23;6.90;;;3.10;;
18776;SDS011;9517;51.174;4.160;2023-04-28T09:31:50;7.47;;;2.57;;
18776;SDS011;9517;51.174;4.160;2023-04-28T09:34:18;7.17;;;2.60;;
18776;SDS011;9517;51.174;4.160;2023-04-28T09:36:45;7.07;;;2.70;;
18776;SDS011;9517;51.174;4.160;2023-04-28T09:39:14;6.53;;;3.00;;
18776;SDS011;9517;51.174;4.160;2023-04-28T09:41:53;9.73;;;3.13;;
18776;SDS011;9517;51.174;4.160;2023-04-28T09:44:20;7.27;;;3.10;;
18776;SDS011;9517;51.174;4.160;2023-04-28T09:46:47;9.77;;;3.50;;
18776;SDS011;9517;51.174;4.160;2023-04-28T09:49:14;6.90;;;3.13;;
18776;SDS011;9517;51.174;4.160;2023-04-28T09:51:41;8.20;;;3.63;;
18776;SDS011;9517;51.174;4.160;2023-04-28T09:54:08;9.87;;;3.43;;
18776;SDS011;9517;51.174;4.160;2023-04-28T09:56:39;7.87;;;3.47;;
18776;SDS011;9517;51.174;4.160;2023-04-28T09:59:09;7.20;;;3.30;;
18776;SDS011;9517;51.174;4.160;2023-04-28T10:01:36;8.43;;;3.03;;
18776;SDS011;9517;51.174;4.160;2023-04-28T10:04:05;6.60;;;2.40;;
18776;SDS011;9517;51.174;4.160;2023-04-28T10:06:35;5.67;;;2.30;;
18776;SDS011;9517;51.174;4.160;2023-04-28T10:09:03;7.80;;;1.90;;
18776;SDS011;9517;51.174;4.160;2023-04-28T10:11:31;4.17;;;1.57;;
18776;SDS011;9517;51.174;4.160;2023-04-28T10:14:00;4.43;;;1.67;;
18776;SDS011;9517;51.174;4.160;2023-04-28T10:16:29;4.77;;;1.73;;
18776;SDS011;9517;51.174;4.160;2023-04-28T10:18:56;3.83;;;1.60;;
18776;SDS011;9517;51.174;4.160;2023-04-28T10:21:23;3.77;;;1.63;;
18776;SDS011;9517;51.174;4.160;2023-04-28T10:23:57;5.40;;;2.10;;
18776;SDS011;9517;51.174;4.160;2023-04-28T10:26:35;6.57;;;2.77;;
18776;SDS011;9517;51.174;4.160;2023-04-28T10:29:44;6.60;;;2.83;;
18776;SDS011;9517;51.174;4.160;2023-04-28T10:32:16;6.93;;;3.40;;
18776;SDS011;9517;51.174;4.160;2023-04-28T10:34:44;8.23;;;4.00;;
18776;SDS011;9517;51.174;4.160;2023-04-28T10:37:12;7.77;;;3.03;;
18776;SDS011;9517;51.174;4.160;2023-04-28T10:39:51;6.10;;;2.53;;
18776;SDS011;9517;51.174;4.160;2023-04-28T10:42:54;8.27;;;2.50;;
18776;SDS011;9517;51.174;4.160;2023-04-28T10:54:13;5.37;;;2.10;;
18776;SDS011;9517;51.174;4.160;2023-04-28T10:59:49;9.30;;;3.50;;
18776;SDS011;9517;51.174;4.160;2023-04-28T11:05:13;10.37;;;4.50;;
18776;SDS011;9517;51.174;4.160;2023-04-28T11:13:44;9.00;;;3.07;;
18776;SDS011;9517;51.174;4.160;2023-04-28T11:16:15;8.43;;;2.70;;
18776;SDS011;9517;51.174;4.160;2023-04-28T11:18:50;7.47;;;2.80;;
18776;SDS011;9517;51.174;4.160;2023-04-28T11:21:27;5.93;;;2.63;;
18776;SDS011;9517;51.174;4.160;2023-04-28T11:23:56;5.87;;;2.10;;
18776;SDS011;9517;51.174;4.160;2023-04-28T11:26:23;6.37;;;2.27;;
18776;SDS011;9517;51.174;4.160;2023-04-28T11:28:51;5.80;;;2.40;;
18776;SDS011;9517;51.174;4.160;2023-04-28T11:31:19;7.73;;;2.90;;
18776;SDS011;9517;51.174;4.160;2023-04-28T11:33:50;7.23;;;2.97;;
18776;SDS011;9517;51.174;4.160;2023-04-28T11:36:21;7.63;;;3.10;;
18776;SDS011;9517;51.174;4.160;2023-04-28T11:38:59;8.67;;;3.73;;
18776;SDS011;9517;51.174;4.160;2023-04-28T11:41:29;9.50;;;4.40;;
18776;SDS011;9517;51.174;4.160;2023-04-28T11:43:56;11.40;;;4.97;;
18776;SDS011;9517;51.174;4.160;2023-04-28T11:46:23;8.77;;;4.07;;
18776;SDS011;9517;51.174;4.160;2023-04-28T11:49:02;10.83;;;4.63;;
18776;SDS011;9517;51.174;4.160;2023-04-28T11:51:31;10.93;;;5.03;;
18776;SDS011;9517;51.174;4.160;2023-04-28T11:54:00;9.87;;;4.83;;
18776;SDS011;9517;51.174;4.160;2023-04-28T11:56:27;11.00;;;5.03;;
18776;SDS011;9517;51.174;4.160;2023-04-28T11:58:59;9.70;;;4.67;;
18776;SDS011;9517;51.174;4.160;2023-04-28T12:01:32;10.50;;;4.70;;
18776;SDS011;9517;51.174;4.160;2023-04-28T12:04:02;10.50;;;5.23;;
18776;SDS011;9517;51.174;4.160;2023-04-28T12:06:30;10.63;;;4.77;;
18776;SDS011;9517;51.174;4.160;2023-04-28T12:08:57;11.53;;;4.60;;
18776;SDS011;9517;51.174;4.160;2023-04-28T12:11:28;8.17;;;4.07;;
18776;SDS011;9517;51.174;4.160;2023-04-28T12:14:03;8.90;;;4.27;;
18776;SDS011;9517;51.174;4.160;2023-04-28T12:16:40;8.47;;;4.20;;
18776;SDS011;9517;51.174;4.160;2023-04-28T12:19:13;10.47;;;4.07;;
18776;SDS011;9517;51.174;4.160;2023-04-28T12:21:41;8.17;;;3.90;;
18776;SDS011;9517;51.174;4.160;2023-04-28T12:24:15;7.70;;;3.87;;
18776;SDS011;9517;51.174;4.160;2023-04-28T12:26:43;11.20;;;4.47;;
18776;SDS011;9517;51.174;4.160;2023-04-28T12:32:05;8.60;;;3.80;;
18776;SDS011;9517;51.174;4.160;2023-04-28T12:34:34;12.27;;;3.60;;
18776;SDS011;9517;51.174;4.160;2023-04-28T12:37:04;8.67;;;3.37;;
18776;SDS011;9517;51.174;4.160;2023-04-28T12:39:31;7.73;;;3.20;;
18776;SDS011;9517;51.174;4.160;2023-04-28T12:41:59;7.53;;;3.40;;
18776;SDS011;9517;51.174;4.160;2023-04-28T12:44:27;8.00;;;3.30;;
18776;SDS011;9517;51.174;4.160;2023-04-28T12:46:59;6.77;;;2.83;;
18776;SDS011;9517;51.174;4.160;2023-04-28T12:49:27;6.17;;;2.87;;
18776;SDS011;9517;51.174;4.160;2023-04-28T12:51:56;6.47;;;2.60;;
18776;SDS011;9517;51.174;4.160;2023-04-28T12:54:23;7.27;;;2.77;;
18776;SDS011;9517;51.174;4.160;2023-04-28T12:56:50;5.87;;;2.60;;
18776;SDS011;9517;51.174;4.160;2023-04-28T12:59:18;6.30;;;2.70;;
18776;SDS011;9517;51.174;4.160;2023-04-28T13:01:46;6.47;;;2.40;;
18776;SDS011;9517;51.174;4.160;2023-04-28T13:04:13;7.27;;;2.70;;
18776;SDS011;9517;51.174;4.160;2023-04-28T13:06:40;5.17;;;2.50;;
18776;SDS011;9517;51.174;4.160;2023-04-28T13:09:09;6.00;;;2.33;;
18776;SDS011;9517;51.174;4.160;2023-04-28T13:11:37;6.30;;;2.40;;
18776;SDS011;9517;51.174;4.160;2023-04-28T13:14:04;6.60;;;2.60;;
18776;SDS011;9517;51.174;4.160;2023-04-28T13:16:31;5.43;;;2.07;;
18776;SDS011;9517;51.174;4.160;2023-04-28T13:18:59;5.53;;;2.57;;
18776;SDS011;9517;51.174;4.160;2023-04-28T13:21:26;5.07;;;2.20;;
18776;SDS011;9517;51.174;4.160;2023-04-28T13:23:53;5.87;;;2.20;;
18776;SDS011;9517;51.174;4.160;2023-04-28T13:26:22;6.90;;;2.50;;
18776;SDS011;9517;51.174;4.160;2023-04-28T13:28:49;4.83;;;2.43;;
18776;SDS011;9517;51.174;4.160;2023-04-28T13:31:17;6.63;;;2.80;;
18776;SDS011;9517;51.174;4.160;2023-04-28T13:33:45;7.77;;;2.87;;
18776;SDS011;9517;51.174;4.160;2023-04-28T13:36:12;8.03;;;2.87;;
18776;SDS011;9517;51.174;4.160;2023-04-28T13:38:39;7.87;;;3.20;;
18776;SDS011;9517;51.174;4.160;2023-04-28T13:41:08;10.07;;;3.40;;
18776;SDS011;9517;51.174;4.160;2023-04-28T13:43:36;7.20;;;3.07;;
18776;SDS011;9517;51.174;4.160;2023-04-28T13:46:03;8.60;;;3.23;;
18776;SDS011;9517;51.174;4.160;2023-04-28T13:48:32;7.53;;;3.03;;
18776;SDS011;9517;51.174;4.160;2023-04-28T13:50:59;8.63;;;3.43;;
18776;SDS011;9517;51.174;4.160;2023-04-28T13:53:26;9.17;;;3.30;;
18776;SDS011;9517;51.174;4.160;2023-04-28T13:55:53;7.77;;;3.83;;
18776;SDS011;9517;51.174;4.160;2023-04-28T13:58:21;8.80;;;3.90;;
18776;SDS011;9517;51.174;4.160;2023-04-28T14:00:50;9.00;;;4.10;;
18776;SDS011;9517;51.174;4.160;2023-04-28T14:03:17;9.37;;;4.50;;
18776;SDS011;9517;51.174;4.160;2023-04-28T14:05:46;10.67;;;4.70;;
18776;SDS011;9517;51.174;4.160;2023-04-28T14:08:13;10.43;;;4.60;;
18776;SDS011;9517;51.174;4.160;2023-04-28T14:10:40;11.73;;;4.50;;
18776;SDS011;9517;51.174;4.160;2023-04-28T14:13:07;10.70;;;4.80;;
18776;SDS011;9517;51.174;4.160;2023-04-28T14:15:34;10.90;;;4.80;;
18776;SDS011;9517;51.174;4.160;2023-04-28T14:18:03;9.73;;;4.60;;
18776;SDS011;9517;51.174;4.160;2023-04-28T14:20:30;9.43;;;4.67;;
18776;SDS011;9517;51.174;4.160;2023-04-28T14:22:57;12.10;;;5.07;;
18776;SDS011;9517;51.174;4.160;2023-04-28T14:25:24;11.40;;;5.10;;
18776;SDS011;9517;51.174;4.160;2023-04-28T14:27:51;12.30;;;6.37;;
18776;SDS011;9517;51.174;4.160;2023-04-28T14:30:19;11.20;;;5.70;;
18776;SDS011;9517;51.174;4.160;2023-04-28T14:32:46;13.47;;;6.77;;
18776;SDS011;9517;51.174;4.160;2023-04-28T14:35:15;12.70;;;6.43;;
18776;SDS011;9517;51.174;4.160;2023-04-28T14:37:44;12.30;;;6.83;;
18776;SDS011;9517;51.174;4.160;2023-04-28T14:40:12;13.80;;;7.53;;
18776;SDS011;9517;51.174;4.160;2023-04-28T14:42:40;13.17;;;7.13;;
18776;SDS011;9517;51.174;4.160;2023-04-28T14:45:08;12.27;;;6.73;;
18776;SDS011;9517;51.174;4.160;2023-04-28T14:47:36;14.80;;;6.97;;
18776;SDS011;9517;51.174;4.160;2023-04-28T14:50:04;13.73;;;6.50;;
18776;SDS011;9517;51.174;4.160;2023-04-28T14:52:34;14.60;;;6.80;;
18776;SDS011;9517;51.174;4.160;2023-04-28T14:55:01;12.60;;;6.43;;
18776;SDS011;9517;51.174;4.160;2023-04-28T14:57:29;14.90;;;6.33;;
18776;SDS011;9517;51.174;4.160;2023-04-28T14:59:58;12.87;;;5.63;;
18776;SDS011;9517;51.174;4.160;2023-04-28T15:02:25;11.50;;;4.80;;
18776;SDS011;9517;51.174;4.160;2023-04-28T15:04:53;9.17;;;4.90;;
18776;SDS011;9517;51.174;4.160;2023-04-28T15:07:21;8.87;;;4.20;;
18776;SDS011;9517;51.174;4.160;2023-04-28T15:09:49;9.53;;;4.33;;
18776;SDS011;9517;51.174;4.160;2023-04-28T15:12:16;10.43;;;5.30;;
18776;SDS011;9517;51.174;4.160;2023-04-28T15:14:46;12.63;;;4.33;;
18776;SDS011;9517;51.174;4.160;2023-04-28T15:17:13;8.97;;;3.70;;
18776;SDS011;9517;51.174;4.160;2023-04-28T15:19:40;9.13;;;3.60;;